Time;durP1;ratioP1;P1;durP2;ratioP2;P2;SDS_P1;SDS_P2;PMS_P1;PMS_P2;Temp;Humidity;BMP_temperature;BMP_pressure;BME280_temperature;BME280_humidity;BME280_pressure;Samples;Min_cycle;Max_cycle;Signal;HPM_P1;HPM_P2
2022/10/20 00:01:20;;;;;;;18.85;8.13;;;307.50;2304.00;;;;;;5033878;28;20551;-77
2022/10/20 00:03:47;;;;;;;14.70;10.10;;;307.80;2304.00;;;;;;5057679;28;20021;-80
2022/10/20 00:06:16;;;;;;;14.75;8.75;;;307.90;2304.00;;;;;;5025270;28;20025;-78
2022/10/20 00:08:43;;;;;;;18.80;9.35;;;307.80;2304.00;;;;;;5035417;28;20036;-78
2022/10/20 00:11:11;;;;;;;17.35;9.27;;;307.80;2304.00;;;;;;5037854;28;20032;-78
2022/10/20 00:13:39;;;;;;;18.42;10.30;;;307.80;2304.00;;;;;;5037574;28;20414;-82
2022/10/20 00:16:06;;;;;;;17.05;9.23;;;307.70;2304.00;;;;;;5024484;28;20441;-82
2022/10/20 00:18:31;;;;;;;21.92;10.77;;;307.70;2304.00;;;;;;5055673;28;20023;-77
2022/10/20 00:20:57;;;;;;;19.13;9.93;;;307.70;2304.00;;;;;;5037638;28;20025;-78
2022/10/20 00:23:23;;;;;;;17.90;9.38;;;307.70;2304.00;;;;;;5037609;28;20045;-78
2022/10/20 00:26:02;;;;;;;17.30;9.13;;;307.60;2304.00;;;;;;5056227;28;21025;-82
2022/10/20 00:28:28;;;;;;;14.77;9.38;;;307.60;2304.00;;;;;;5055231;28;20036;-82
2022/10/20 00:30:55;;;;;;;20.80;9.68;;;307.60;2304.00;;;;;;5054923;28;20029;-77
2022/10/20 00:33:21;;;;;;;19.55;10.10;;;307.60;2304.00;;;;;;5029339;28;20022;-81
2022/10/20 00:35:47;;;;;;;14.15;9.02;;;307.60;2304.00;;;;;;5014764;28;20029;-78
2022/10/20 00:38:13;;;;;;;15.70;8.88;;;307.40;2304.00;;;;;;5010831;28;20021;-77
2022/10/20 00:40:38;;;;;;;23.13;10.70;;;307.50;2304.00;;;;;;5004184;28;20026;-78
2022/10/20 00:43:11;;;;;;;19.85;10.05;;;307.50;2304.00;;;;;;4998317;28;20029;-80
2022/10/20 00:45:36;;;;;;;24.63;10.13;;;307.50;2304.00;;;;;;4999426;28;20050;-80
2022/10/20 00:48:15;;;;;;;18.23;10.45;;;307.50;2304.00;;;;;;5001845;28;20419;-77
2022/10/20 00:50:48;;;;;;;17.85;10.07;;;307.40;2304.00;;;;;;5001851;28;20037;-77
2022/10/20 00:53:19;;;;;;;23.77;10.82;;;307.30;2304.00;;;;;;4998835;28;20080;-77
2022/10/20 00:55:50;;;;;;;14.13;9.85;;;307.20;2304.00;;;;;;5030835;28;20030;-77
2022/10/20 00:58:17;;;;;;;16.75;9.80;;;307.20;2304.00;;;;;;5009840;28;20053;-77
2022/10/20 01:00:45;;;;;;;15.63;9.48;;;282.40;2278.40;;;;;;4999263;28;20116;-77
2022/10/20 01:03:16;;;;;;;17.00;9.57;;;282.50;2278.40;;;;;;5004489;28;20017;-77
2022/10/20 01:05:42;;;;;;;15.75;9.25;;;307.20;2304.00;;;;;;5002346;28;20476;-77
2022/10/20 01:08:08;;;;;;;17.02;8.40;;;307.30;2304.00;;;;;;4995882;28;20064;-78
2022/10/20 01:10:45;;;;;;;;;;;307.20;2304.00;;;;;;5005260;28;20076;-78
2022/10/20 01:13:20;;;;;;;13.10;8.52;;;307.30;2304.00;;;;;;5002374;28;19920;-82
2022/10/20 01:16:10;;;;;;;17.77;9.13;;;307.30;2304.00;;;;;;4996602;28;20491;-77
2022/10/20 01:18:49;;;;;;;13.88;9.25;;;307.20;2304.00;;;;;;5016579;28;20022;-77
2022/10/20 01:21:26;;;;;;;19.17;9.65;;;282.50;2278.40;;;;;;4999550;28;20022;-77
2022/10/20 01:23:52;;;;;;;17.02;8.65;;;307.20;2304.00;;;;;;5016318;28;20502;-77
2022/10/20 01:26:20;;;;;;;18.38;9.32;;;282.50;2278.40;;;;;;5014208;28;20026;-78
2022/10/20 01:28:52;;;;;;;16.70;10.20;;;307.20;2304.00;;;;;;5019355;28;20121;-77
2022/10/20 01:31:51;;;;;;;13.75;8.95;;;282.50;2278.40;;;;;;5013676;28;20045;-77
2022/10/20 01:34:34;;;;;;;18.13;10.02;;;307.20;2304.00;;;;;;4996125;28;20026;-82
2022/10/20 01:37:29;;;;;;;16.27;8.93;;;282.50;2278.40;;;;;;5024656;28;20094;-81
2022/10/20 01:40:04;;;;;;;18.35;8.95;;;282.50;2278.40;;;;;;5015895;28;20545;-77
2022/10/20 01:42:30;;;;;;;16.33;9.50;;;282.40;2278.40;;;;;;5017695;28;20034;-77
2022/10/20 01:45:00;;;;;;;16.23;9.18;;;282.40;2278.40;;;;;;5017192;28;20037;-82
2022/10/20 01:47:27;;;;;;;16.50;9.95;;;282.30;2278.40;;;;;;5001930;28;20034;-77
2022/10/20 01:49:55;;;;;;;13.23;8.85;;;282.30;2278.40;;;;;;4998963;28;20037;-77
2022/10/20 01:52:22;;;;;;;13.13;8.52;;;282.30;2278.40;;;;;;4999896;28;20479;-77
2022/10/20 01:54:48;;;;;;;13.30;8.13;;;282.30;2278.40;;;;;;5022651;28;20419;-77
2022/10/20 01:57:47;;;;;;;11.38;9.07;;;282.30;2278.40;;;;;;4995643;28;20037;-77
2022/10/20 02:00:16;;;;;;;16.13;8.70;;;282.40;2278.40;;;;;;5013190;28;20022;-77
2022/10/20 02:02:47;;;;;;;18.38;8.77;;;282.20;2278.40;;;;;;4999911;28;20490;-77
2022/10/20 02:05:31;;;;;;;15.27;8.88;;;282.20;2278.40;;;;;;4998849;28;20018;-77
2022/10/20 02:08:06;;;;;;;14.10;8.15;;;282.20;2278.40;;;;;;4998263;28;20744;-77
2022/10/20 02:10:46;;;;;;;15.65;9.43;;;282.00;2278.40;;;;;;4998252;28;20045;-78
2022/10/20 02:13:13;;;;;;;12.93;8.50;;;282.10;2278.40;;;;;;5016687;28;20368;-77
2022/10/20 02:15:43;;;;;;;11.80;8.43;;;282.10;2278.40;;;;;;4995217;28;20030;-83
2022/10/20 02:18:12;;;;;;;17.58;9.43;;;282.10;2278.40;;;;;;5015547;28;20018;-82
2022/10/20 02:20:42;;;;;;;15.02;8.27;;;282.00;2278.40;;;;;;5000836;28;20026;-77
2022/10/20 02:23:09;;;;;;;13.98;8.55;;;282.10;2278.40;;;;;;5015052;28;20026;-78
2022/10/20 02:25:36;;;;;;;13.63;8.57;;;282.00;2278.40;;;;;;5020870;28;20091;-82
2022/10/20 02:28:04;;;;;;;19.95;9.07;;;282.10;2278.40;;;;;;4997593;28;20053;-78
2022/10/20 02:30:31;;;;;;;14.07;8.38;;;282.00;2278.40;;;;;;5000523;28;20088;-82
2022/10/20 02:32:56;;;;;;;13.30;8.23;;;281.90;2278.40;;;;;;5005739;28;20025;-77
2022/10/20 02:35:28;;;;;;;16.10;9.35;;;282.00;2278.40;;;;;;5015606;28;20026;-77
2022/10/20 02:37:55;;;;;;;14.68;9.63;;;282.10;2278.40;;;;;;5003142;28;20052;-78
2022/10/20 02:40:21;;;;;;;15.10;9.52;;;282.10;2278.40;;;;;;5004012;28;20079;-77
2022/10/20 02:42:47;;;;;;;13.27;8.98;;;282.10;2278.40;;;;;;5019494;28;20097;-81
2022/10/20 02:45:13;;;;;;;16.10;8.32;;;282.10;2278.40;;;;;;4999953;28;20604;-81
2022/10/20 02:47:39;;;;;;;12.30;8.07;;;282.20;2278.40;;;;;;4999909;28;20030;-76
2022/10/20 02:50:05;;;;;;;16.35;8.23;;;282.10;2278.40;;;;;;5001367;28;20053;-76
2022/10/20 02:52:31;;;;;;;12.93;8.88;;;282.10;2278.40;;;;;;5016128;28;20022;-78
2022/10/20 02:54:57;;;;;;;15.52;8.25;;;282.00;2278.40;;;;;;4997332;28;20032;-82
2022/10/20 02:57:22;;;;;;;;;;;282.20;2278.40;;;;;;5001844;28;20036;-77
2022/10/20 02:59:48;;;;;;;15.60;8.43;;;282.10;2278.40;;;;;;5021085;28;19913;-78
2022/10/20 03:02:14;;;;;;;16.17;8.50;;;282.00;2278.40;;;;;;5021205;28;20530;-77
2022/10/20 03:04:39;;;;;;;;;;;282.00;2278.40;;;;;;5000495;28;20391;-83
2022/10/20 03:07:05;;;;;;;21.27;8.05;;;282.00;2278.40;;;;;;5014987;28;19905;-77
2022/10/20 03:09:31;;;;;;;17.10;8.73;;;282.10;2278.40;;;;;;5002030;28;20029;-82
2022/10/20 03:11:57;;;;;;;16.70;9.20;;;282.20;2278.40;;;;;;5002137;28;20026;-76
2022/10/20 03:14:22;;;;;;;15.82;8.35;;;282.20;2278.40;;;;;;4997517;28;20026;-82
2022/10/20 03:16:48;;;;;;;;;;;282.30;2278.40;;;;;;4997758;28;20080;-82
2022/10/20 03:19:14;;;;;;;13.95;7.88;;;282.20;2278.40;;;;;;5033025;28;19956;-78
2022/10/20 03:21:39;;;;;;;14.20;8.15;;;282.20;2278.40;;;;;;4994238;28;20054;-77
2022/10/20 03:24:06;;;;;;;15.52;8.52;;;282.30;2278.40;;;;;;5012125;28;20026;-77
2022/10/20 03:26:32;;;;;;;14.13;7.82;;;282.30;2278.40;;;;;;5014790;28;20021;-83
2022/10/20 03:28:57;;;;;;;14.43;8.02;;;282.40;2278.40;;;;;;5002687;28;20357;-77
2022/10/20 03:31:23;;;;;;;15.52;8.10;;;282.40;2278.40;;;;;;5011037;28;20095;-77
2022/10/20 03:33:49;;;;;;;12.35;8.52;;;282.40;2278.40;;;;;;5011317;28;20045;-77
2022/10/20 03:36:15;;;;;;;17.35;8.35;;;282.50;2278.40;;;;;;5034946;28;20081;-77
2022/10/20 03:38:44;;;;;;;12.95;8.25;;;282.40;2278.40;;;;;;5000183;28;20030;-82
2022/10/20 03:41:10;;;;;;;15.25;7.60;;;282.30;2278.40;;;;;;5002445;28;20029;-77
2022/10/20 03:43:38;;;;;;;14.45;6.95;;;282.20;2278.40;;;;;;5024738;28;20022;-82
2022/10/20 03:46:06;;;;;;;14.23;8.00;;;282.20;2278.40;;;;;;5004555;28;20061;-77
2022/10/20 03:48:32;;;;;;;13.93;7.25;;;282.20;2278.40;;;;;;5012341;28;20104;-83
2022/10/20 03:51:00;;;;;;;10.82;7.05;;;282.20;2278.40;;;;;;5035785;28;20167;-77
2022/10/20 03:53:26;;;;;;;12.00;6.60;;;282.20;2278.40;;;;;;5002960;28;20018;-76
2022/10/20 03:55:51;;;;;;;12.98;6.55;;;282.20;2278.40;;;;;;5001029;28;20030;-77
2022/10/20 03:58:18;;;;;;;12.98;6.53;;;282.00;2278.40;;;;;;5003045;28;20034;-77
2022/10/20 04:00:44;;;;;;;8.52;5.55;;;282.00;2278.40;;;;;;5000286;28;20422;-77
2022/10/20 04:03:10;;;;;;;11.57;6.03;;;282.10;2278.40;;;;;;4997004;28;20026;-78
2022/10/20 04:05:36;;;;;;;15.45;6.70;;;282.10;2278.40;;;;;;4999930;28;20105;-81
2022/10/20 04:08:03;;;;;;;10.20;5.82;;;282.20;2278.40;;;;;;5015737;28;20028;-80
2022/10/20 04:10:29;;;;;;;11.40;5.28;;;282.20;2278.40;;;;;;5021802;28;20034;-77
2022/10/20 04:12:57;;;;;;;14.45;6.45;;;282.00;2278.40;;;;;;5000884;28;20518;-81
2022/10/20 04:15:23;;;;;;;10.02;5.90;;;282.10;2278.40;;;;;;5003065;28;20049;-76
2022/10/20 04:17:49;;;;;;;9.95;5.72;;;282.20;2278.40;;;;;;5004122;28;20014;-78
2022/10/20 04:20:16;;;;;;;10.00;5.68;;;282.10;2278.40;;;;;;5029521;28;20414;-77
2022/10/20 04:22:42;;;;;;;13.93;5.88;;;282.10;2278.40;;;;;;5003392;28;20100;-79
2022/10/20 04:25:08;;;;;;;10.65;5.28;;;282.10;2278.40;;;;;;5003064;28;20125;-77
2022/10/20 04:27:33;;;;;;;9.80;5.70;;;282.10;2278.40;;;;;;4999105;28;20031;-79
2022/10/20 04:29:59;;;;;;;8.15;5.38;;;282.00;2278.40;;;;;;5003784;28;20071;-82
2022/10/20 04:32:25;;;;;;;6.85;5.28;;;282.00;2278.40;;;;;;4999546;28;20365;-77
2022/10/20 04:34:51;;;;;;;8.65;4.68;;;282.00;2278.40;;;;;;5002399;28;20026;-80
2022/10/20 04:37:16;;;;;;;9.13;5.57;;;281.90;2278.40;;;;;;5014714;28;20022;-77
2022/10/20 04:39:42;;;;;;;12.43;5.97;;;281.90;2278.40;;;;;;5005351;28;20407;-77
2022/10/20 04:42:08;;;;;;;10.18;5.28;;;281.90;2278.40;;;;;;5000343;28;20105;-77
2022/10/20 04:44:34;;;;;;;11.55;5.22;;;281.80;2278.40;;;;;;5001469;28;20117;-76
2022/10/20 04:46:59;;;;;;;9.55;5.63;;;281.80;2278.40;;;;;;5020192;28;20049;-76
2022/10/20 04:49:25;;;;;;;11.30;5.15;;;281.80;2278.40;;;;;;5002887;28;20038;-78
2022/10/20 04:51:51;;;;;;;10.85;5.93;;;281.80;2278.40;;;;;;5027589;28;20028;-82
2022/10/20 04:54:17;;;;;;;11.93;5.28;;;281.70;2278.40;;;;;;5002524;28;20061;-77
2022/10/20 04:56:43;;;;;;;11.27;5.22;;;281.60;2278.40;;;;;;5025716;28;20053;-79
2022/10/20 04:59:08;;;;;;;;;;;256.80;2252.80;;;;;;5005748;28;20029;-79
2022/10/20 05:01:34;;;;;;;17.75;7.88;;;256.80;2252.80;;;;;;5006657;28;19913;-79
2022/10/20 05:04:00;;;;;;;23.73;9.70;;;256.70;2252.80;;;;;;5006882;28;20471;-77
2022/10/20 05:06:28;;;;;;;16.95;7.85;;;256.70;2252.80;;;;;;5020619;28;20029;-77
2022/10/20 05:08:57;;;;;;;10.77;6.82;;;256.50;2252.80;;;;;;5008182;28;20022;-79
2022/10/20 05:11:24;;;;;;;11.38;6.78;;;256.60;2252.80;;;;;;5026215;28;20531;-81
2022/10/20 05:13:50;;;;;;;14.82;6.65;;;256.50;2252.80;;;;;;5019488;28;20561;-81
2022/10/20 05:16:17;;;;;;;11.25;6.53;;;256.50;2252.80;;;;;;5016575;28;20026;-76
2022/10/20 05:18:43;;;;;;;14.68;6.57;;;256.40;2252.80;;;;;;5030625;28;20021;-83
2022/10/20 05:21:14;;;;;;;9.70;5.57;;;256.50;2252.80;;;;;;5020274;28;20017;-82
2022/10/20 05:23:41;;;;;;;12.10;5.40;;;256.40;2252.80;;;;;;5006256;28;20061;-75
2022/10/20 05:26:12;;;;;;;15.55;6.60;;;256.50;2252.80;;;;;;5027540;28;20383;-79
2022/10/20 05:28:41;;;;;;;16.65;6.53;;;256.80;2252.80;;;;;;4996058;28;20028;-82
2022/10/20 05:31:07;;;;;;;17.27;6.55;;;256.70;2252.80;;;;;;5013795;28;20033;-77
2022/10/20 05:33:34;;;;;;;12.65;6.78;;;256.70;2252.80;;;;;;5014451;28;20049;-78
2022/10/20 05:35:59;;;;;;;15.68;7.22;;;256.80;2252.80;;;;;;5036334;28;20518;-76
2022/10/20 05:38:26;;;;;;;12.73;7.25;;;256.80;2252.80;;;;;;5048729;28;20021;-76
2022/10/20 05:40:51;;;;;;;14.63;7.25;;;256.80;2252.80;;;;;;5018762;28;20385;-75
2022/10/20 05:43:17;;;;;;;12.32;6.88;;;256.80;2252.80;;;;;;5002458;28;20051;-82
2022/10/20 05:45:43;;;;;;;15.02;6.70;;;256.90;2252.80;;;;;;4997233;28;20076;-76
2022/10/20 05:48:08;;;;;;;11.98;6.95;;;256.70;2252.80;;;;;;5000904;28;20539;-74
2022/10/20 05:50:34;;;;;;;13.23;8.13;;;256.70;2252.80;;;;;;5015911;28;20033;-77
2022/10/20 05:53:00;;;;;;;13.73;7.57;;;256.80;2252.80;;;;;;4998207;28;20057;-79
2022/10/20 05:55:25;;;;;;;;;;;256.80;2252.80;;;;;;4999526;28;20018;-74
2022/10/20 05:57:51;;;;;;;16.20;8.77;;;256.90;2252.80;;;;;;5013001;28;19906;-76
2022/10/20 06:00:28;;;;;;;18.98;9.43;;;256.90;2252.80;;;;;;5013644;28;20208;-81
2022/10/20 06:02:54;;;;;;;17.85;9.00;;;256.80;2252.80;;;;;;5027396;28;20104;-77
2022/10/20 06:05:20;;;;;;;23.48;11.23;;;256.90;2252.80;;;;;;5053318;28;20017;-75
2022/10/20 06:07:45;;;;;;;34.67;11.07;;;256.90;2252.80;;;;;;5035294;28;20028;-83
2022/10/20 06:10:11;;;;;;;11.80;6.82;;;256.70;2252.80;;;;;;5042083;28;20375;-75
2022/10/20 06:12:37;;;;;;;11.25;6.22;;;256.90;2252.80;;;;;;5050264;28;20021;-75
2022/10/20 06:15:02;;;;;;;;;;;256.90;2252.80;;;;;;5035750;28;20033;-75
2022/10/20 06:17:28;;;;;;;15.32;8.98;;;256.90;2252.80;;;;;;5039169;28;19905;-83
2022/10/20 06:19:54;;;;;;;15.35;10.00;;;256.90;2252.80;;;;;;5053141;28;20495;-76
2022/10/20 06:22:19;;;;;;;17.35;9.57;;;281.60;2278.40;;;;;;5053202;28;20028;-75
2022/10/20 06:24:46;;;;;;;11.27;6.78;;;281.60;2278.40;;;;;;5022667;28;20479;-79
2022/10/20 06:27:11;;;;;;;8.93;5.78;;;281.70;2278.40;;;;;;5030813;28;20041;-76
2022/10/20 06:29:37;;;;;;;13.45;6.18;;;281.70;2278.40;;;;;;5035256;28;20017;-74
2022/10/20 06:32:03;;;;;;;12.88;5.32;;;281.90;2278.40;;;;;;5052805;28;20078;-76
2022/10/20 06:34:29;;;;;;;10.63;5.95;;;281.90;2278.40;;;;;;5052859;28;20483;-78
2022/10/20 06:36:54;;;;;;;22.67;9.50;;;281.90;2278.40;;;;;;5052698;28;20029;-74
2022/10/20 06:39:22;;;;;;;;;;;282.00;2278.40;;;;;;5029449;28;20029;-79
2022/10/20 06:41:49;;;;;;;13.32;5.55;;;282.00;2278.40;;;;;;5037555;28;19940;-76
2022/10/20 06:44:16;;;;;;;9.65;5.72;;;282.00;2278.40;;;;;;5004437;28;20072;-76
2022/10/20 06:46:42;;;;;;;7.40;4.88;;;282.00;2278.40;;;;;;5022638;28;20557;-75
2022/10/20 06:49:12;;;;;;;10.45;5.00;;;282.10;2278.40;;;;;;5016452;28;20030;-81
2022/10/20 06:51:38;;;;;;;6.65;4.35;;;282.10;2278.40;;;;;;5023931;28;20483;-76
2022/10/20 06:54:04;;;;;;;10.82;4.80;;;282.20;2278.40;;;;;;4998639;28;20443;-79
2022/10/20 06:56:32;;;;;;;10.93;4.97;;;282.30;2278.40;;;;;;4999856;28;20101;-77
2022/10/20 06:58:59;;;;;;;11.88;5.20;;;282.40;2278.40;;;;;;5012115;28;20030;-76
2022/10/20 07:01:33;;;;;;;6.40;4.13;;;307.20;2304.00;;;;;;4997919;28;20069;-76
2022/10/20 07:04:05;;;;;;;12.95;4.15;;;307.20;2304.00;;;;;;4998855;28;20022;-77
2022/10/20 07:06:33;;;;;;;8.18;3.97;;;307.40;2304.00;;;;;;5009334;28;20040;-79
2022/10/20 07:08:59;;;;;;;9.20;3.88;;;307.40;2304.00;;;;;;5011164;28;20070;-77
2022/10/20 07:11:28;;;;;;;9.25;4.50;;;307.50;2304.00;;;;;;5012101;28;20042;-83
2022/10/20 07:13:56;;;;;;;7.55;3.33;;;307.50;2304.00;;;;;;5025890;28;20109;-77
2022/10/20 07:16:24;;;;;;;13.40;4.47;;;307.40;2304.00;;;;;;5031188;28;20032;-84
2022/10/20 07:18:50;;;;;;;10.30;4.70;;;307.50;2304.00;;;;;;5034428;28;20379;-80
2022/10/20 07:21:21;;;;;;;8.05;4.25;;;307.60;2304.00;;;;;;5034002;28;20036;-79
2022/10/20 07:23:47;;;;;;;8.43;4.60;;;307.60;2304.00;;;;;;5034346;28;20479;-77
2022/10/20 07:26:14;;;;;;;6.25;3.72;;;307.80;2304.00;;;;;;5052323;28;20491;-77
2022/10/20 07:28:42;;;;;;;7.53;4.53;;;307.80;2304.00;;;;;;5026562;28;20026;-81
2022/10/20 07:31:19;;;;;;;7.28;3.85;;;307.90;2304.00;;;;;;5028582;28;20065;-79
2022/10/20 07:33:45;;;;;;;7.07;3.28;;;308.10;2304.00;;;;;;5034320;28;20017;-78
2022/10/20 07:36:13;;;;;;;12.50;4.82;;;308.00;2304.00;;;;;;5020431;28;20036;-82
2022/10/20 07:38:40;;;;;;;7.65;4.20;;;332.90;2329.60;;;;;;5038190;28;20071;-79
2022/10/20 07:41:05;;;;;;;8.95;3.75;;;333.00;2329.60;;;;;;5034311;28;20516;-84
2022/10/20 07:43:31;;;;;;;6.10;3.35;;;333.10;2329.60;;;;;;5023429;28;20105;-78
2022/10/20 07:45:57;;;;;;;11.55;4.05;;;333.20;2329.60;;;;;;4998893;28;20442;-82
2022/10/20 07:48:23;;;;;;;8.70;3.90;;;333.20;2329.60;;;;;;5014413;28;20034;-77
2022/10/20 07:50:48;;;;;;;6.47;3.42;;;333.30;2329.60;;;;;;5016803;28;20057;-79
2022/10/20 07:53:14;;;;;;;6.10;3.63;;;333.40;2329.60;;;;;;5028187;28;20036;-76
2022/10/20 07:55:40;;;;;;;9.40;3.42;;;333.60;2329.60;;;;;;5011544;28;20109;-80
2022/10/20 07:58:05;;;;;;;6.38;3.33;;;333.50;2329.60;;;;;;5012103;28;20030;-76
2022/10/20 08:00:31;;;;;;;5.32;2.72;;;333.50;2329.60;;;;;;5012061;28;20030;-85
2022/10/20 08:02:57;;;;;;;15.88;6.78;;;333.60;2329.60;;;;;;5035197;28;20038;-80
2022/10/20 08:05:22;;;;;;;8.60;4.80;;;333.60;2329.60;;;;;;4992900;28;20034;-77
2022/10/20 08:07:48;;;;;;;10.27;3.78;;;333.70;2329.60;;;;;;5011630;28;20026;-77
2022/10/20 08:10:14;;;;;;;7.00;3.95;;;333.70;2329.60;;;;;;4996469;28;20034;-82
2022/10/20 08:12:39;;;;;;;6.60;3.63;;;333.70;2329.60;;;;;;4996375;28;20025;-82
2022/10/20 08:15:06;;;;;;;9.48;3.13;;;358.40;2329.60;;;;;;5015973;28;20068;-82
2022/10/20 08:17:31;;;;;;;6.20;3.15;;;358.50;2329.60;;;;;;4996488;28;20028;-78
2022/10/20 08:19:57;;;;;;;7.50;3.40;;;358.60;2329.60;;;;;;4998293;28;20046;-78
2022/10/20 08:22:23;;;;;;;9.13;2.70;;;358.70;2329.60;;;;;;5016084;28;20022;-80
2022/10/20 08:24:49;;;;;;;5.65;2.70;;;358.70;2329.60;;;;;;5002164;28;20037;-80
2022/10/20 08:27:14;;;;;;;7.70;2.38;;;358.80;2329.60;;;;;;5024095;28;20119;-77
2022/10/20 08:29:40;;;;;;;5.25;2.25;;;358.80;2329.60;;;;;;4996879;28;20569;-80
2022/10/20 08:32:06;;;;;;;9.38;2.70;;;358.90;2329.60;;;;;;5017828;28;20037;-78
2022/10/20 08:34:32;;;;;;;5.50;2.83;;;359.00;2329.60;;;;;;5016607;28;20018;-84
2022/10/20 08:36:58;;;;;;;4.15;2.08;;;359.00;2201.60;;;;;;5019379;28;20053;-78
2022/10/20 08:39:24;;;;;;;6.82;2.35;;;359.00;2227.20;;;;;;4997018;28;20022;-83
2022/10/20 08:41:52;;;;;;;4.15;2.40;;;359.10;2150.40;;;;;;5000349;28;20018;-86
2022/10/20 08:44:31;;;;;;;4.97;2.58;;;359.20;2201.60;;;;;;4999293;28;20029;-84
2022/10/20 08:47:03;;;;;;;3.85;2.05;;;359.30;2124.80;;;;;;5017512;28;20057;-85
2022/10/20 08:49:33;;;;;;;5.25;2.10;;;384.00;2073.60;;;;;;5020163;28;20467;-79
2022/10/20 08:52:00;;;;;;;4.10;2.10;;;384.00;2022.40;;;;;;5010905;28;20091;-78
2022/10/20 08:54:26;;;;;;;6.57;2.25;;;384.20;1996.80;;;;;;5020342;28;20018;-80
2022/10/20 08:56:52;;;;;;;4.25;2.30;;;384.30;1920.00;;;;;;4997388;28;20444;-84
2022/10/20 08:59:32;;;;;;;9.93;2.83;;;384.50;1945.60;;;;;;5002306;28;20024;-86
2022/10/20 09:01:58;;;;;;;6.10;2.55;;;384.60;1920.00;;;;;;5005088;28;20095;-83
2022/10/20 09:04:46;;;;;;;3.17;1.88;;;384.80;1843.20;;;;;;5030940;28;20029;-80
2022/10/20 09:07:31;;;;;;;4.57;2.05;;;409.70;1868.80;;;;;;5037260;28;20029;-80
2022/10/20 09:10:15;;;;;;;5.32;2.28;;;409.90;1894.40;;;;;;5031602;28;20120;-91
2022/10/20 09:12:43;;;;;;;5.80;2.50;;;410.10;1792.00;;;;;;5021406;28;20028;-78
2022/10/20 09:15:14;;;;;;;4.53;2.05;;;410.30;1766.40;;;;;;5002040;28;20034;-78
2022/10/20 09:17:56;;;;;;;4.85;1.98;;;410.50;1689.60;;;;;;5000862;28;20022;-79
2022/10/20 09:20:26;;;;;;;6.22;2.13;;;435.20;1664.00;;;;;;5001661;28;20527;-79
2022/10/20 09:22:52;;;;;;;4.25;2.45;;;435.40;1638.40;;;;;;5016021;28;20021;-79
2022/10/20 09:25:26;;;;;;;5.05;1.95;;;435.60;1638.40;;;;;;5021209;28;20365;-84
2022/10/20 09:27:54;;;;;;;7.78;2.25;;;435.70;1587.20;;;;;;5014440;28;20455;-89
2022/10/20 09:30:21;;;;;;;5.00;1.80;;;435.90;1612.80;;;;;;5029574;28;20037;-78
2022/10/20 09:32:48;;;;;;;6.45;2.28;;;436.10;1561.60;;;;;;5016595;28;20021;-78
2022/10/20 09:35:23;;;;;;;6.47;2.47;;;436.10;1536.00;;;;;;5025387;28;20036;-79
2022/10/20 09:38:03;;;;;;;5.53;2.28;;;460.90;1561.60;;;;;;5035064;28;20055;-78
2022/10/20 09:40:30;;;;;;;6.88;2.08;;;461.10;1536.00;;;;;;4996418;28;20030;-89
2022/10/20 09:43:06;;;;;;;6.50;2.20;;;461.20;1459.20;;;;;;5001564;28;20025;-78
2022/10/20 09:45:33;;;;;;;5.40;2.35;;;461.40;1484.80;;;;;;5000679;28;20037;-87
2022/10/20 09:48:17;;;;;;;4.25;1.65;;;461.50;1408.00;;;;;;5021839;28;20026;-86
2022/10/20 09:50:50;;;;;;;5.60;2.13;;;461.60;1408.00;;;;;;4998446;28;20112;-89
2022/10/20 09:53:25;;;;;;;3.22;1.98;;;486.40;1408.00;;;;;;5015944;28;20013;-79
2022/10/20 09:55:51;;;;;;;7.13;2.22;;;486.40;1382.40;;;;;;5019165;28;20479;-90
2022/10/20 09:58:17;;;;;;;4.95;2.25;;;486.50;1382.40;;;;;;5023122;28;20030;-88
2022/10/20 10:00:59;;;;;;;4.53;1.60;;;486.70;1331.20;;;;;;5053783;28;20028;-77
2022/10/20 10:03:25;;;;;;;3.65;1.77;;;486.90;1331.20;;;;;;5031035;28;20543;-77
2022/10/20 10:05:59;;;;;;;6.22;2.30;;;487.20;1305.60;;;;;;5044666;28;20040;-87
2022/10/20 10:08:40;;;;;;;4.43;2.15;;;487.30;1331.20;;;;;;5054281;28;20049;-80
2022/10/20 10:11:18;;;;;;;6.97;1.70;;;487.30;1305.60;;;;;;5035665;28;20033;-76
2022/10/20 10:13:46;;;;;;;6.28;2.17;;;512.10;1280.00;;;;;;5053008;28;20032;-81
2022/10/20 10:16:18;;;;;;;3.83;1.85;;;512.30;1254.40;;;;;;5035208;28;20043;-78
2022/10/20 10:18:54;;;;;;;7.88;2.00;;;512.60;1254.40;;;;;;5034879;28;20107;-81
2022/10/20 10:21:20;;;;;;;4.53;1.55;;;512.90;1280.00;;;;;;5053367;28;20025;-88
2022/10/20 10:24:03;;;;;;;5.72;1.92;;;537.60;1254.40;;;;;;5053760;28;20032;-78
2022/10/20 10:26:45;;;;;;;5.10;2.17;;;537.80;1280.00;;;;;;5035940;28;20108;-79
2022/10/20 10:29:28;;;;;;;5.82;2.17;;;538.00;1254.40;;;;;;5029693;28;20029;-89
2022/10/20 10:32:13;;;;;;;5.85;2.08;;;538.10;1254.40;;;;;;5038276;28;20052;-78
2022/10/20 10:34:45;;;;;;;6.53;2.15;;;538.20;1254.40;;;;;;5035988;28;20470;-91
2022/10/20 10:37:14;;;;;;;5.97;2.03;;;538.50;1254.40;;;;;;5016370;28;20041;-92
2022/10/20 10:39:40;;;;;;;3.92;2.30;;;538.50;1203.20;;;;;;5021364;28;20024;-77
2022/10/20 10:42:21;;;;;;;4.50;1.88;;;538.50;1203.20;;;;;;5022906;28;20052;-91
2022/10/20 10:44:50;;;;;;;4.40;2.00;;;538.50;1203.20;;;;;;5048323;28;20028;-89
2022/10/20 10:47:53;;;;;;;3.50;2.10;;;563.40;1203.20;;;;;;5035177;28;20052;-89
2022/10/20 10:50:37;;;;;;;4.53;1.98;;;563.50;1228.80;;;;;;5052161;28;20013;-76
2022/10/20 10:53:19;;;;;;;5.30;2.28;;;563.50;1228.80;;;;;;5053121;28;20032;-77
2022/10/20 10:56:11;;;;;;;12.20;2.20;;;563.50;1228.80;;;;;;5009594;28;20104;-75
2022/10/20 10:58:46;;;;;;;8.10;2.10;;;563.50;1203.20;;;;;;5047588;28;20041;-76
2022/10/20 11:01:11;;;;;;;5.88;2.13;;;563.60;1228.80;;;;;;5053169;28;20021;-76
2022/10/20 11:03:40;;;;;;;3.78;2.08;;;563.80;1305.60;;;;;;5052937;28;20095;-77
2022/10/20 11:06:19;;;;;;;5.00;2.15;;;564.00;1203.20;;;;;;5034872;28;20052;-76
2022/10/20 11:09:19;;;;;;;4.22;2.03;;;564.00;1177.60;;;;;;5035543;28;20061;-77
2022/10/20 11:11:45;;;;;;;7.18;2.10;;;588.80;1177.60;;;;;;5018247;28;20036;-88
2022/10/20 11:14:34;;;;;;;7.82;2.13;;;564.10;1152.00;;;;;;5034514;28;20517;-76
2022/10/20 11:17:21;;;;;;;6.57;2.58;;;564.10;1152.00;;;;;;5052151;28;20033;-77
2022/10/20 11:20:06;;;;;;;8.18;2.20;;;588.80;1177.60;;;;;;5052687;28;20088;-76
2022/10/20 11:22:38;;;;;;;7.40;2.50;;;588.90;1152.00;;;;;;5052753;28;20479;-76
2022/10/20 11:25:45;;;;;;;8.95;2.88;;;589.00;1152.00;;;;;;5051921;28;20441;-76
2022/10/20 11:28:42;;;;;;;6.97;3.80;;;589.00;1152.00;;;;;;4952630;29;20065;-90
2022/10/20 11:31:21;;;;;;;5.00;1.90;;;589.00;1152.00;;;;;;4952109;29;20071;-76
2022/10/20 11:33:55;;;;;;;6.40;2.72;;;589.00;1152.00;;;;;;4952730;29;20035;-88
2022/10/20 11:36:24;;;;;;;8.07;2.88;;;589.00;1126.40;;;;;;4938418;29;20140;-78
2022/10/20 11:38:54;;;;;;;5.43;3.03;;;589.10;1177.60;;;;;;4952876;28;20094;-89
2022/10/20 11:41:30;;;;;;;6.32;2.30;;;589.10;1177.60;;;;;;4951421;28;20067;-87
2022/10/20 11:43:58;;;;;;;;;;;589.20;1177.60;;;;;;4940843;29;20070;-76
2022/10/20 11:46:29;;;;;;;4.72;2.70;;;589.10;1177.60;;;;;;4933716;29;19962;-76
2022/10/20 11:48:55;;;;;;;7.55;2.65;;;589.20;1177.60;;;;;;4945817;29;20055;-82
2022/10/20 11:51:29;;;;;;;3.80;2.13;;;589.20;1152.00;;;;;;4932777;29;20028;-80
2022/10/20 11:54:28;;;;;;;3.55;2.13;;;589.10;1152.00;;;;;;4941723;29;20536;-77
2022/10/20 11:57:14;;;;;;;8.82;2.53;;;589.30;1152.00;;;;;;4951720;28;20092;-76
2022/10/20 11:59:40;;;;;;;14.40;8.63;;;589.20;1152.00;;;;;;5022588;28;20072;-75
2022/10/20 12:02:44;;;;;;;19.92;11.07;;;589.00;1177.60;;;;;;5055311;28;20517;-76
2022/10/20 12:05:43;;;;;;;7.80;4.78;;;588.90;1177.60;;;;;;4956532;28;20046;-76
2022/10/20 12:08:32;;;;;;;6.38;2.50;;;588.90;1177.60;;;;;;4917949;29;20036;-77
2022/10/20 12:10:58;;;;;;;4.88;2.40;;;588.90;1152.00;;;;;;4934864;29;20054;-94
2022/10/20 12:13:37;;;;;;;6.45;2.33;;;588.90;1177.60;;;;;;4955988;29;20485;-78
2022/10/20 12:16:03;;;;;;;3.75;1.45;;;564.10;1177.60;;;;;;4952350;29;20066;-92
2022/10/20 12:18:34;;;;;;;7.20;2.25;;;588.90;1177.60;;;;;;4950727;29;20502;-77
2022/10/20 12:21:04;;;;;;;4.47;2.13;;;564.10;1152.00;;;;;;4939713;29;20066;-85
2022/10/20 12:23:44;;;;;;;5.28;2.20;;;564.10;1152.00;;;;;;4955415;29;20602;-77
2022/10/20 12:26:28;;;;;;;7.60;2.50;;;563.90;1152.00;;;;;;4928905;29;20472;-77
2022/10/20 12:29:02;;;;;;;4.93;2.30;;;563.70;1177.60;;;;;;4934264;29;20036;-77